sensor_id;sensor_type;location;lat;lon;timestamp;P1;durP1;ratioP1;P2;durP2;ratioP2
44764;SDS011;30484;52.382;5.260;2022-12-18T00:00:29;141.50;;;39.10;;
44764;SDS011;30484;52.382;5.260;2022-12-18T00:03:00;132.50;;;40.08;;
44764;SDS011;30484;52.382;5.260;2022-12-18T00:05:29;151.68;;;40.00;;
44764;SDS011;30484;52.382;5.260;2022-12-18T00:07:58;146.73;;;39.85;;
44764;SDS011;30484;52.382;5.260;2022-12-18T00:10:27;140.98;;;38.90;;
44764;SDS011;30484;52.382;5.260;2022-12-18T00:12:58;139.73;;;38.67;;
44764;SDS011;30484;52.382;5.260;2022-12-18T00:15:36;138.80;;;38.38;;
44764;SDS011;30484;52.382;5.260;2022-12-18T00:18:06;133.63;;;39.35;;
44764;SDS011;30484;52.382;5.260;2022-12-18T00:20:35;130.90;;;38.60;;
44764;SDS011;30484;52.382;5.260;2022-12-18T00:23:06;132.45;;;38.70;;
44764;SDS011;30484;52.382;5.260;2022-12-18T00:25:35;133.30;;;40.75;;
44764;SDS011;30484;52.382;5.260;2022-12-18T00:28:05;131.68;;;39.58;;
44764;SDS011;30484;52.382;5.260;2022-12-18T00:30:35;135.65;;;38.80;;
44764;SDS011;30484;52.382;5.260;2022-12-18T00:33:04;136.07;;;39.75;;
44764;SDS011;30484;52.382;5.260;2022-12-18T00:35:35;135.63;;;40.28;;
44764;SDS011;30484;52.382;5.260;2022-12-18T00:38:05;139.13;;;41.70;;
44764;SDS011;30484;52.382;5.260;2022-12-18T00:40:34;140.15;;;40.42;;
44764;SDS011;30484;52.382;5.260;2022-12-18T00:43:04;132.23;;;41.38;;
44764;SDS011;30484;52.382;5.260;2022-12-18T00:45:33;140.88;;;41.42;;
44764;SDS011;30484;52.382;5.260;2022-12-18T00:48:07;144.93;;;40.45;;
44764;SDS011;30484;52.382;5.260;2022-12-18T00:50:35;144.45;;;41.28;;
44764;SDS011;30484;52.382;5.260;2022-12-18T00:53:04;134.27;;;41.53;;
44764;SDS011;30484;52.382;5.260;2022-12-18T00:55:34;124.88;;;39.05;;
44764;SDS011;30484;52.382;5.260;2022-12-18T00:58:04;132.63;;;40.70;;
44764;SDS011;30484;52.382;5.260;2022-12-18T01:00:33;128.05;;;38.83;;
44764;SDS011;30484;52.382;5.260;2022-12-18T01:03:04;129.13;;;41.42;;
44764;SDS011;30484;52.382;5.260;2022-12-18T01:05:34;132.82;;;40.05;;
44764;SDS011;30484;52.382;5.260;2022-12-18T01:08:07;128.98;;;39.63;;
44764;SDS011;30484;52.382;5.260;2022-12-18T01:10:35;122.07;;;38.85;;
44764;SDS011;30484;52.382;5.260;2022-12-18T01:13:08;122.28;;;38.45;;
44764;SDS011;30484;52.382;5.260;2022-12-18T01:15:38;119.45;;;37.15;;
44764;SDS011;30484;52.382;5.260;2022-12-18T01:18:07;132.73;;;40.20;;
44764;SDS011;30484;52.382;5.260;2022-12-18T01:20:36;128.48;;;40.60;;
44764;SDS011;30484;52.382;5.260;2022-12-18T01:23:06;120.68;;;37.85;;
44764;SDS011;30484;52.382;5.260;2022-12-18T01:25:35;124.43;;;38.50;;
44764;SDS011;30484;52.382;5.260;2022-12-18T01:28:04;126.55;;;40.20;;
44764;SDS011;30484;52.382;5.260;2022-12-18T01:30:33;141.15;;;40.75;;
44764;SDS011;30484;52.382;5.260;2022-12-18T01:33:05;142.13;;;41.17;;
44764;SDS011;30484;52.382;5.260;2022-12-18T01:35:39;134.88;;;40.63;;
44764;SDS011;30484;52.382;5.260;2022-12-18T01:38:10;135.73;;;38.97;;
44764;SDS011;30484;52.382;5.260;2022-12-18T01:40:39;137.73;;;40.35;;
44764;SDS011;30484;52.382;5.260;2022-12-18T01:43:08;124.05;;;37.92;;
44764;SDS011;30484;52.382;5.260;2022-12-18T01:45:37;131.18;;;40.35;;
44764;SDS011;30484;52.382;5.260;2022-12-18T01:48:08;129.68;;;39.85;;
44764;SDS011;30484;52.382;5.260;2022-12-18T01:50:38;136.43;;;39.05;;
44764;SDS011;30484;52.382;5.260;2022-12-18T01:53:10;136.70;;;40.25;;
44764;SDS011;30484;52.382;5.260;2022-12-18T01:55:44;132.00;;;38.47;;
44764;SDS011;30484;52.382;5.260;2022-12-18T01:58:17;134.15;;;40.40;;
44764;SDS011;30484;52.382;5.260;2022-12-18T02:00:47;151.63;;;41.30;;
44764;SDS011;30484;52.382;5.260;2022-12-18T02:03:17;133.85;;;38.97;;
44764;SDS011;30484;52.382;5.260;2022-12-18T02:05:47;134.43;;;39.45;;
44764;SDS011;30484;52.382;5.260;2022-12-18T02:08:30;124.05;;;38.03;;
44764;SDS011;30484;52.382;5.260;2022-12-18T02:11:07;130.32;;;37.10;;
44764;SDS011;30484;52.382;5.260;2022-12-18T02:13:46;126.65;;;38.33;;
44764;SDS011;30484;52.382;5.260;2022-12-18T02:16:26;124.47;;;37.78;;
44764;SDS011;30484;52.382;5.260;2022-12-18T02:19:06;141.70;;;41.22;;
44764;SDS011;30484;52.382;5.260;2022-12-18T02:21:56;126.93;;;38.38;;
44764;SDS011;30484;52.382;5.260;2022-12-18T02:24:35;130.23;;;38.90;;
44764;SDS011;30484;52.382;5.260;2022-12-18T02:27:14;145.88;;;41.53;;
44764;SDS011;30484;52.382;5.260;2022-12-18T02:29:44;149.02;;;42.50;;
44764;SDS011;30484;52.382;5.260;2022-12-18T02:32:24;136.95;;;39.45;;
44764;SDS011;30484;52.382;5.260;2022-12-18T02:34:56;149.05;;;41.95;;
44764;SDS011;30484;52.382;5.260;2022-12-18T02:37:30;137.68;;;39.63;;
44764;SDS011;30484;52.382;5.260;2022-12-18T02:40:01;137.07;;;41.80;;
44764;SDS011;30484;52.382;5.260;2022-12-18T02:42:34;135.68;;;40.08;;
44764;SDS011;30484;52.382;5.260;2022-12-18T02:45:05;136.70;;;38.72;;
44764;SDS011;30484;52.382;5.260;2022-12-18T02:47:36;140.57;;;40.92;;
44764;SDS011;30484;52.382;5.260;2022-12-18T02:50:19;134.75;;;39.05;;
44764;SDS011;30484;52.382;5.260;2022-12-18T02:53:00;120.75;;;38.63;;
44764;SDS011;30484;52.382;5.260;2022-12-18T02:55:45;132.77;;;38.90;;
44764;SDS011;30484;52.382;5.260;2022-12-18T02:58:30;134.88;;;40.75;;
44764;SDS011;30484;52.382;5.260;2022-12-18T03:01:11;133.90;;;38.40;;
44764;SDS011;30484;52.382;5.260;2022-12-18T03:03:47;124.20;;;36.55;;
44764;SDS011;30484;52.382;5.260;2022-12-18T03:06:25;138.00;;;40.53;;
44764;SDS011;30484;52.382;5.260;2022-12-18T03:08:59;125.70;;;35.88;;
44764;SDS011;30484;52.382;5.260;2022-12-18T03:11:34;128.98;;;37.92;;
44764;SDS011;30484;52.382;5.260;2022-12-18T03:14:30;123.70;;;37.13;;
44764;SDS011;30484;52.382;5.260;2022-12-18T03:17:02;127.47;;;37.78;;
44764;SDS011;30484;52.382;5.260;2022-12-18T03:19:35;125.40;;;37.17;;
44764;SDS011;30484;52.382;5.260;2022-12-18T03:22:11;132.43;;;39.10;;
44764;SDS011;30484;52.382;5.260;2022-12-18T03:24:41;119.20;;;39.63;;
44764;SDS011;30484;52.382;5.260;2022-12-18T03:27:11;128.23;;;39.88;;
44764;SDS011;30484;52.382;5.260;2022-12-18T03:29:47;118.18;;;37.45;;
44764;SDS011;30484;52.382;5.260;2022-12-18T03:32:23;123.47;;;39.88;;
44764;SDS011;30484;52.382;5.260;2022-12-18T03:34:58;121.13;;;38.65;;
44764;SDS011;30484;52.382;5.260;2022-12-18T03:37:32;134.20;;;39.42;;
44764;SDS011;30484;52.382;5.260;2022-12-18T03:40:02;124.03;;;39.33;;
44764;SDS011;30484;52.382;5.260;2022-12-18T03:42:37;124.30;;;36.83;;
44764;SDS011;30484;52.382;5.260;2022-12-18T03:45:18;118.00;;;37.78;;
44764;SDS011;30484;52.382;5.260;2022-12-18T03:47:58;120.68;;;38.05;;
44764;SDS011;30484;52.382;5.260;2022-12-18T03:50:35;122.85;;;37.00;;
44764;SDS011;30484;52.382;5.260;2022-12-18T03:53:16;121.97;;;36.35;;
44764;SDS011;30484;52.382;5.260;2022-12-18T03:55:58;121.65;;;36.70;;
44764;SDS011;30484;52.382;5.260;2022-12-18T03:58:30;117.72;;;36.83;;
44764;SDS011;30484;52.382;5.260;2022-12-18T04:01:05;132.53;;;37.97;;
44764;SDS011;30484;52.382;5.260;2022-12-18T04:03:39;124.10;;;37.30;;
44764;SDS011;30484;52.382;5.260;2022-12-18T04:06:11;121.50;;;36.80;;
44764;SDS011;30484;52.382;5.260;2022-12-18T04:08:42;122.38;;;38.33;;
44764;SDS011;30484;52.382;5.260;2022-12-18T04:11:12;121.05;;;36.50;;
44764;SDS011;30484;52.382;5.260;2022-12-18T04:13:43;133.43;;;36.92;;
44764;SDS011;30484;52.382;5.260;2022-12-18T04:16:13;139.00;;;39.80;;
44764;SDS011;30484;52.382;5.260;2022-12-18T04:18:41;132.73;;;38.80;;
44764;SDS011;30484;52.382;5.260;2022-12-18T04:21:11;122.13;;;40.30;;
44764;SDS011;30484;52.382;5.260;2022-12-18T04:23:40;136.13;;;38.33;;
44764;SDS011;30484;52.382;5.260;2022-12-18T04:26:09;127.22;;;38.53;;
44764;SDS011;30484;52.382;5.260;2022-12-18T04:28:38;127.13;;;35.88;;
44764;SDS011;30484;52.382;5.260;2022-12-18T04:31:07;116.78;;;35.20;;
44764;SDS011;30484;52.382;5.260;2022-12-18T04:33:39;125.40;;;36.80;;
44764;SDS011;30484;52.382;5.260;2022-12-18T04:36:08;127.28;;;36.97;;
44764;SDS011;30484;52.382;5.260;2022-12-18T04:38:39;111.90;;;36.00;;
44764;SDS011;30484;52.382;5.260;2022-12-18T04:41:09;121.05;;;37.72;;
44764;SDS011;30484;52.382;5.260;2022-12-18T04:43:38;120.22;;;35.65;;
44764;SDS011;30484;52.382;5.260;2022-12-18T04:46:08;117.57;;;34.53;;
44764;SDS011;30484;52.382;5.260;2022-12-18T04:48:38;116.45;;;36.30;;
44764;SDS011;30484;52.382;5.260;2022-12-18T04:51:07;117.28;;;35.90;;
44764;SDS011;30484;52.382;5.260;2022-12-18T04:53:37;115.50;;;34.75;;
44764;SDS011;30484;52.382;5.260;2022-12-18T04:56:11;112.43;;;34.13;;
44764;SDS011;30484;52.382;5.260;2022-12-18T04:58:42;106.10;;;34.72;;
44764;SDS011;30484;52.382;5.260;2022-12-18T05:01:13;113.10;;;34.00;;
44764;SDS011;30484;52.382;5.260;2022-12-18T05:03:46;108.93;;;33.47;;
44764;SDS011;30484;52.382;5.260;2022-12-18T05:06:14;107.25;;;33.03;;
44764;SDS011;30484;52.382;5.260;2022-12-18T05:08:43;103.05;;;32.75;;
44764;SDS011;30484;52.382;5.260;2022-12-18T05:11:13;100.85;;;31.60;;
44764;SDS011;30484;52.382;5.260;2022-12-18T05:13:43;99.03;;;32.80;;
44764;SDS011;30484;52.382;5.260;2022-12-18T05:16:12;99.72;;;31.30;;
44764;SDS011;30484;52.382;5.260;2022-12-18T05:18:41;98.10;;;30.67;;
44764;SDS011;30484;52.382;5.260;2022-12-18T05:21:12;97.03;;;31.40;;
44764;SDS011;30484;52.382;5.260;2022-12-18T05:23:42;95.60;;;31.20;;
44764;SDS011;30484;52.382;5.260;2022-12-18T05:26:14;91.38;;;30.35;;
44764;SDS011;30484;52.382;5.260;2022-12-18T05:28:45;94.32;;;30.83;;
44764;SDS011;30484;52.382;5.260;2022-12-18T05:31:14;91.43;;;29.30;;
44764;SDS011;30484;52.382;5.260;2022-12-18T05:33:49;84.00;;;27.95;;
44764;SDS011;30484;52.382;5.260;2022-12-18T05:36:20;92.25;;;29.35;;
44764;SDS011;30484;52.382;5.260;2022-12-18T05:38:49;91.40;;;28.35;;
44764;SDS011;30484;52.382;5.260;2022-12-18T05:41:27;77.47;;;28.13;;
44764;SDS011;30484;52.382;5.260;2022-12-18T05:43:57;85.25;;;27.85;;
44764;SDS011;30484;52.382;5.260;2022-12-18T05:46:26;83.65;;;27.23;;
44764;SDS011;30484;52.382;5.260;2022-12-18T05:48:58;82.63;;;27.27;;
44764;SDS011;30484;52.382;5.260;2022-12-18T05:51:29;78.38;;;28.20;;
44764;SDS011;30484;52.382;5.260;2022-12-18T05:53:58;91.90;;;29.75;;
44764;SDS011;30484;52.382;5.260;2022-12-18T05:56:27;77.82;;;27.08;;
44764;SDS011;30484;52.382;5.260;2022-12-18T05:58:55;78.93;;;27.08;;
44764;SDS011;30484;52.382;5.260;2022-12-18T06:01:25;81.60;;;27.90;;
44764;SDS011;30484;52.382;5.260;2022-12-18T06:03:54;82.38;;;28.15;;
44764;SDS011;30484;52.382;5.260;2022-12-18T06:06:27;85.57;;;28.20;;
44764;SDS011;30484;52.382;5.260;2022-12-18T06:08:58;86.28;;;27.38;;
44764;SDS011;30484;52.382;5.260;2022-12-18T06:11:33;84.47;;;26.00;;
44764;SDS011;30484;52.382;5.260;2022-12-18T06:14:04;74.72;;;26.35;;
44764;SDS011;30484;52.382;5.260;2022-12-18T06:16:36;74.20;;;26.38;;
44764;SDS011;30484;52.382;5.260;2022-12-18T06:19:04;77.20;;;27.50;;
44764;SDS011;30484;52.382;5.260;2022-12-18T06:21:37;82.90;;;27.77;;
44764;SDS011;30484;52.382;5.260;2022-12-18T06:24:11;81.78;;;27.80;;
44764;SDS011;30484;52.382;5.260;2022-12-18T06:26:40;82.10;;;27.70;;
44764;SDS011;30484;52.382;5.260;2022-12-18T06:29:08;79.45;;;26.20;;
44764;SDS011;30484;52.382;5.260;2022-12-18T06:31:41;82.72;;;27.17;;
44764;SDS011;30484;52.382;5.260;2022-12-18T06:34:12;75.95;;;25.88;;
44764;SDS011;30484;52.382;5.260;2022-12-18T06:36:44;70.97;;;26.25;;
44764;SDS011;30484;52.382;5.260;2022-12-18T06:39:12;76.63;;;26.70;;
44764;SDS011;30484;52.382;5.260;2022-12-18T06:41:41;71.90;;;26.40;;
44764;SDS011;30484;52.382;5.260;2022-12-18T06:44:11;75.10;;;26.92;;
44764;SDS011;30484;52.382;5.260;2022-12-18T06:46:42;70.32;;;25.15;;
44764;SDS011;30484;52.382;5.260;2022-12-18T06:49:12;67.25;;;25.55;;
44764;SDS011;30484;52.382;5.260;2022-12-18T06:51:45;77.90;;;25.73;;
44764;SDS011;30484;52.382;5.260;2022-12-18T06:54:15;68.25;;;24.85;;
44764;SDS011;30484;52.382;5.260;2022-12-18T06:56:44;67.43;;;24.20;;
44764;SDS011;30484;52.382;5.260;2022-12-18T06:59:14;77.65;;;25.33;;
44764;SDS011;30484;52.382;5.260;2022-12-18T07:01:43;67.63;;;23.98;;
44764;SDS011;30484;52.382;5.260;2022-12-18T07:04:13;67.32;;;24.67;;
44764;SDS011;30484;52.382;5.260;2022-12-18T07:06:46;66.38;;;23.30;;
44764;SDS011;30484;52.382;5.260;2022-12-18T07:09:14;68.88;;;26.05;;
44764;SDS011;30484;52.382;5.260;2022-12-18T07:11:43;65.68;;;24.73;;
44764;SDS011;30484;52.382;5.260;2022-12-18T07:14:11;68.63;;;24.73;;
44764;SDS011;30484;52.382;5.260;2022-12-18T07:16:41;66.50;;;24.25;;
44764;SDS011;30484;52.382;5.260;2022-12-18T07:21:46;56.70;;;22.48;;
44764;SDS011;30484;52.382;5.260;2022-12-18T07:24:16;65.57;;;23.90;;
44764;SDS011;30484;52.382;5.260;2022-12-18T07:26:46;69.05;;;25.08;;
44764;SDS011;30484;52.382;5.260;2022-12-18T07:29:16;61.67;;;24.67;;
44764;SDS011;30484;52.382;5.260;2022-12-18T07:31:45;68.63;;;24.70;;
44764;SDS011;30484;52.382;5.260;2022-12-18T07:34:14;70.30;;;24.70;;
44764;SDS011;30484;52.382;5.260;2022-12-18T07:36:47;63.97;;;24.00;;
44764;SDS011;30484;52.382;5.260;2022-12-18T07:39:18;58.88;;;23.10;;
44764;SDS011;30484;52.382;5.260;2022-12-18T07:41:47;61.90;;;23.67;;
44764;SDS011;30484;52.382;5.260;2022-12-18T07:44:36;53.80;;;21.10;;
44764;SDS011;30484;52.382;5.260;2022-12-18T07:47:05;63.63;;;22.48;;
44764;SDS011;30484;52.382;5.260;2022-12-18T07:49:37;56.60;;;21.92;;
44764;SDS011;30484;52.382;5.260;2022-12-18T07:52:09;53.65;;;22.20;;
44764;SDS011;30484;52.382;5.260;2022-12-18T07:54:38;55.28;;;21.83;;
44764;SDS011;30484;52.382;5.260;2022-12-18T07:57:09;58.08;;;22.42;;
44764;SDS011;30484;52.382;5.260;2022-12-18T07:59:59;53.65;;;22.05;;
44764;SDS011;30484;52.382;5.260;2022-12-18T08:02:30;52.45;;;21.15;;
44764;SDS011;30484;52.382;5.260;2022-12-18T08:05:00;56.53;;;20.95;;
44764;SDS011;30484;52.382;5.260;2022-12-18T08:07:33;56.65;;;21.20;;
44764;SDS011;30484;52.382;5.260;2022-12-18T08:10:02;53.70;;;21.05;;
44764;SDS011;30484;52.382;5.260;2022-12-18T08:12:36;58.72;;;22.25;;
44764;SDS011;30484;52.382;5.260;2022-12-18T08:15:05;57.60;;;22.17;;
44764;SDS011;30484;52.382;5.260;2022-12-18T08:17:35;52.53;;;22.05;;
44764;SDS011;30484;52.382;5.260;2022-12-18T08:20:06;51.92;;;21.65;;
44764;SDS011;30484;52.382;5.260;2022-12-18T08:22:39;57.75;;;23.30;;
44764;SDS011;30484;52.382;5.260;2022-12-18T08:25:12;56.78;;;23.75;;
44764;SDS011;30484;52.382;5.260;2022-12-18T08:27:40;47.65;;;21.02;;
44764;SDS011;30484;52.382;5.260;2022-12-18T08:30:10;53.33;;;22.30;;
44764;SDS011;30484;52.382;5.260;2022-12-18T08:32:40;53.78;;;23.00;;
44764;SDS011;30484;52.382;5.260;2022-12-18T08:35:11;52.00;;;21.95;;
44764;SDS011;30484;52.382;5.260;2022-12-18T08:37:45;57.08;;;22.85;;
44764;SDS011;30484;52.382;5.260;2022-12-18T08:40:14;50.30;;;23.08;;
44764;SDS011;30484;52.382;5.260;2022-12-18T08:42:45;51.35;;;22.42;;
44764;SDS011;30484;52.382;5.260;2022-12-18T08:45:31;54.08;;;23.67;;
44764;SDS011;30484;52.382;5.260;2022-12-18T08:48:01;53.58;;;23.92;;
44764;SDS011;30484;52.382;5.260;2022-12-18T08:50:31;55.78;;;23.85;;
44764;SDS011;30484;52.382;5.260;2022-12-18T08:53:03;50.53;;;21.85;;
44764;SDS011;30484;52.382;5.260;2022-12-18T08:55:32;50.85;;;23.00;;
44764;SDS011;30484;52.382;5.260;2022-12-18T08:58:01;50.90;;;21.67;;
44764;SDS011;30484;52.382;5.260;2022-12-18T09:00:30;52.40;;;23.15;;
44764;SDS011;30484;52.382;5.260;2022-12-18T09:03:10;52.53;;;21.95;;
44764;SDS011;30484;52.382;5.260;2022-12-18T09:05:41;53.70;;;23.67;;
44764;SDS011;30484;52.382;5.260;2022-12-18T09:11:42;50.15;;;22.48;;
44764;SDS011;30484;52.382;5.260;2022-12-18T09:14:12;50.28;;;22.40;;
44764;SDS011;30484;52.382;5.260;2022-12-18T09:16:44;46.63;;;22.15;;
44764;SDS011;30484;52.382;5.260;2022-12-18T09:19:17;54.92;;;23.35;;
44764;SDS011;30484;52.382;5.260;2022-12-18T09:21:52;52.45;;;23.45;;
44764;SDS011;30484;52.382;5.260;2022-12-18T09:24:31;48.25;;;21.67;;
44764;SDS011;30484;52.382;5.260;2022-12-18T09:27:00;50.10;;;22.70;;
44764;SDS011;30484;52.382;5.260;2022-12-18T09:29:30;47.17;;;21.48;;
44764;SDS011;30484;52.382;5.260;2022-12-18T09:32:01;48.30;;;21.55;;
44764;SDS011;30484;52.382;5.260;2022-12-18T09:34:30;45.40;;;21.08;;
44764;SDS011;30484;52.382;5.260;2022-12-18T09:37:02;41.88;;;20.65;;
44764;SDS011;30484;52.382;5.260;2022-12-18T09:39:34;43.80;;;20.65;;
44764;SDS011;30484;52.382;5.260;2022-12-18T09:42:09;50.17;;;22.17;;
44764;SDS011;30484;52.382;5.260;2022-12-18T09:44:50;44.33;;;20.60;;
44764;SDS011;30484;52.382;5.260;2022-12-18T09:47:23;47.70;;;21.10;;
44764;SDS011;30484;52.382;5.260;2022-12-18T09:50:04;43.33;;;19.98;;
44764;SDS011;30484;52.382;5.260;2022-12-18T09:52:50;41.17;;;19.88;;
44764;SDS011;30484;52.382;5.260;2022-12-18T09:55:25;43.10;;;20.25;;
44764;SDS011;30484;52.382;5.260;2022-12-18T09:58:04;42.45;;;19.45;;
44764;SDS011;30484;52.382;5.260;2022-12-18T10:00:44;43.13;;;20.23;;
44764;SDS011;30484;52.382;5.260;2022-12-18T10:03:15;42.15;;;20.15;;
44764;SDS011;30484;52.382;5.260;2022-12-18T10:05:46;39.25;;;18.45;;
44764;SDS011;30484;52.382;5.260;2022-12-18T10:08:30;39.72;;;19.50;;
44764;SDS011;30484;52.382;5.260;2022-12-18T10:11:19;39.20;;;17.73;;
44764;SDS011;30484;52.382;5.260;2022-12-18T10:14:00;39.97;;;17.58;;
44764;SDS011;30484;52.382;5.260;2022-12-18T10:16:39;36.97;;;16.98;;
44764;SDS011;30484;52.382;5.260;2022-12-18T10:19:28;42.03;;;18.60;;
44764;SDS011;30484;52.382;5.260;2022-12-18T10:22:11;34.40;;;16.65;;
44764;SDS011;30484;52.382;5.260;2022-12-18T10:24:58;35.85;;;16.58;;
44764;SDS011;30484;52.382;5.260;2022-12-18T10:27:39;35.45;;;16.90;;
44764;SDS011;30484;52.382;5.260;2022-12-18T10:30:11;29.65;;;14.57;;
44764;SDS011;30484;52.382;5.260;2022-12-18T10:32:42;29.45;;;14.88;;
44764;SDS011;30484;52.382;5.260;2022-12-18T10:35:15;30.48;;;14.50;;
44764;SDS011;30484;52.382;5.260;2022-12-18T10:37:59;30.08;;;14.25;;
44764;SDS011;30484;52.382;5.260;2022-12-18T10:40:52;33.65;;;13.65;;
44764;SDS011;30484;52.382;5.260;2022-12-18T10:43:27;31.70;;;14.32;;
44764;SDS011;30484;52.382;5.260;2022-12-18T10:45:59;28.88;;;14.60;;
44764;SDS011;30484;52.382;5.260;2022-12-18T10:48:52;34.80;;;15.20;;
44764;SDS011;30484;52.382;5.260;2022-12-18T10:51:25;31.23;;;14.00;;
44764;SDS011;30484;52.382;5.260;2022-12-18T10:54:00;30.02;;;14.55;;
44764;SDS011;30484;52.382;5.260;2022-12-18T10:56:42;29.10;;;14.45;;
44764;SDS011;30484;52.382;5.260;2022-12-18T10:59:16;29.95;;;13.68;;
44764;SDS011;30484;52.382;5.260;2022-12-18T11:02:01;26.77;;;13.77;;
44764;SDS011;30484;52.382;5.260;2022-12-18T11:04:53;29.85;;;13.88;;
44764;SDS011;30484;52.382;5.260;2022-12-18T11:07:34;135.15;;;64.53;;
44764;SDS011;30484;52.382;5.260;2022-12-18T11:10:18;97.43;;;44.70;;
44764;SDS011;30484;52.382;5.260;2022-12-18T11:13:09;35.75;;;16.50;;
44764;SDS011;30484;52.382;5.260;2022-12-18T11:15:47;32.05;;;14.35;;
44764;SDS011;30484;52.382;5.260;2022-12-18T11:18:17;28.13;;;14.10;;
44764;SDS011;30484;52.382;5.260;2022-12-18T11:20:53;32.10;;;13.38;;
44764;SDS011;30484;52.382;5.260;2022-12-18T11:23:28;27.42;;;12.80;;
44764;SDS011;30484;52.382;5.260;2022-12-18T11:25:57;25.23;;;13.02;;
44764;SDS011;30484;52.382;5.260;2022-12-18T11:28:35;27.80;;;12.18;;
44764;SDS011;30484;52.382;5.260;2022-12-18T11:34:01;27.85;;;13.23;;
44764;SDS011;30484;52.382;5.260;2022-12-18T11:36:55;27.52;;;12.23;;
44764;SDS011;30484;52.382;5.260;2022-12-18T11:39:30;25.73;;;12.40;;
44764;SDS011;30484;52.382;5.260;2022-12-18T11:42:08;26.88;;;12.95;;
44764;SDS011;30484;52.382;5.260;2022-12-18T11:44:46;27.08;;;12.57;;
44764;SDS011;30484;52.382;5.260;2022-12-18T11:47:24;27.02;;;13.18;;
44764;SDS011;30484;52.382;5.260;2022-12-18T11:49:59;25.20;;;12.43;;
44764;SDS011;30484;52.382;5.260;2022-12-18T11:52:33;29.45;;;13.45;;
44764;SDS011;30484;52.382;5.260;2022-12-18T11:55:10;24.00;;;12.10;;
44764;SDS011;30484;52.382;5.260;2022-12-18T11:57:46;28.65;;;12.43;;
44764;SDS011;30484;52.382;5.260;2022-12-18T12:00:24;24.42;;;12.18;;
44764;SDS011;30484;52.382;5.260;2022-12-18T12:03:27;25.65;;;11.80;;
44764;SDS011;30484;52.382;5.260;2022-12-18T12:06:24;27.02;;;11.45;;
44764;SDS011;30484;52.382;5.260;2022-12-18T12:09:04;25.10;;;11.40;;
44764;SDS011;30484;52.382;5.260;2022-12-18T12:11:43;24.75;;;11.27;;
44764;SDS011;30484;52.382;5.260;2022-12-18T12:14:35;28.08;;;12.00;;
44764;SDS011;30484;52.382;5.260;2022-12-18T12:17:19;24.65;;;11.70;;
44764;SDS011;30484;52.382;5.260;2022-12-18T12:20:02;23.85;;;11.48;;
44764;SDS011;30484;52.382;5.260;2022-12-18T12:22:41;29.08;;;12.05;;
44764;SDS011;30484;52.382;5.260;2022-12-18T12:25:20;27.38;;;12.45;;
44764;SDS011;30484;52.382;5.260;2022-12-18T12:28:03;27.35;;;12.45;;
44764;SDS011;30484;52.382;5.260;2022-12-18T12:30:50;25.58;;;11.82;;
44764;SDS011;30484;52.382;5.260;2022-12-18T12:33:35;23.85;;;11.68;;
44764;SDS011;30484;52.382;5.260;2022-12-18T12:36:17;27.33;;;12.57;;
44764;SDS011;30484;52.382;5.260;2022-12-18T12:38:57;25.08;;;11.75;;
44764;SDS011;30484;52.382;5.260;2022-12-18T12:41:35;23.75;;;11.57;;
44764;SDS011;30484;52.382;5.260;2022-12-18T12:44:25;30.33;;;12.93;;
44764;SDS011;30484;52.382;5.260;2022-12-18T12:47:04;26.83;;;12.00;;
44764;SDS011;30484;52.382;5.260;2022-12-18T12:49:43;23.33;;;11.70;;
44764;SDS011;30484;52.382;5.260;2022-12-18T12:52:20;26.48;;;11.80;;
44764;SDS011;30484;52.382;5.260;2022-12-18T12:55:01;28.63;;;11.98;;
44764;SDS011;30484;52.382;5.260;2022-12-18T12:57:41;27.15;;;11.93;;
44764;SDS011;30484;52.382;5.260;2022-12-18T13:00:19;23.80;;;11.65;;
44764;SDS011;30484;52.382;5.260;2022-12-18T13:02:50;23.02;;;11.05;;
44764;SDS011;30484;52.382;5.260;2022-12-18T13:05:30;25.20;;;11.55;;
44764;SDS011;30484;52.382;5.260;2022-12-18T13:08:22;27.65;;;12.05;;
44764;SDS011;30484;52.382;5.260;2022-12-18T13:10:57;27.65;;;12.77;;
44764;SDS011;30484;52.382;5.260;2022-12-18T13:13:48;28.95;;;13.00;;
44764;SDS011;30484;52.382;5.260;2022-12-18T13:16:20;25.02;;;11.85;;
44764;SDS011;30484;52.382;5.260;2022-12-18T13:18:54;23.88;;;12.52;;
44764;SDS011;30484;52.382;5.260;2022-12-18T13:21:27;25.92;;;12.38;;
44764;SDS011;30484;52.382;5.260;2022-12-18T13:24:14;26.38;;;12.13;;
44764;SDS011;30484;52.382;5.260;2022-12-18T13:26:53;25.92;;;12.82;;
44764;SDS011;30484;52.382;5.260;2022-12-18T13:29:40;25.73;;;12.75;;
44764;SDS011;30484;52.382;5.260;2022-12-18T13:32:19;25.45;;;13.05;;
44764;SDS011;30484;52.382;5.260;2022-12-18T13:38:18;30.52;;;13.23;;
44764;SDS011;30484;52.382;5.260;2022-12-18T13:40:56;26.65;;;13.25;;
44764;SDS011;30484;52.382;5.260;2022-12-18T13:43:43;26.60;;;13.05;;
44764;SDS011;30484;52.382;5.260;2022-12-18T13:46:19;26.30;;;12.98;;
44764;SDS011;30484;52.382;5.260;2022-12-18T13:48:52;25.85;;;12.38;;
44764;SDS011;30484;52.382;5.260;2022-12-18T13:51:26;24.33;;;11.90;;
44764;SDS011;30484;52.382;5.260;2022-12-18T13:54:06;26.70;;;12.48;;
44764;SDS011;30484;52.382;5.260;2022-12-18T13:56:51;27.67;;;11.80;;
44764;SDS011;30484;52.382;5.260;2022-12-18T13:59:21;28.35;;;12.25;;
44764;SDS011;30484;52.382;5.260;2022-12-18T14:01:52;26.30;;;12.35;;
44764;SDS011;30484;52.382;5.260;2022-12-18T14:04:28;27.98;;;12.77;;
44764;SDS011;30484;52.382;5.260;2022-12-18T14:07:01;27.92;;;13.18;;
44764;SDS011;30484;52.382;5.260;2022-12-18T14:09:34;26.20;;;12.30;;
44764;SDS011;30484;52.382;5.260;2022-12-18T14:12:11;28.67;;;14.40;;
44764;SDS011;30484;52.382;5.260;2022-12-18T14:15:03;31.98;;;14.18;;
44764;SDS011;30484;52.382;5.260;2022-12-18T14:17:44;89.00;;;33.38;;
44764;SDS011;30484;52.382;5.260;2022-12-18T14:20:18;36.60;;;15.15;;
44764;SDS011;30484;52.382;5.260;2022-12-18T14:22:48;38.85;;;14.80;;
44764;SDS011;30484;52.382;5.260;2022-12-18T14:25:19;39.58;;;22.38;;
44764;SDS011;30484;52.382;5.260;2022-12-18T14:28:20;35.72;;;17.70;;
44764;SDS011;30484;52.382;5.260;2022-12-18T14:30:53;47.28;;;20.50;;
44764;SDS011;30484;52.382;5.260;2022-12-18T14:33:24;31.30;;;15.05;;
44764;SDS011;30484;52.382;5.260;2022-12-18T14:35:57;28.90;;;13.60;;
44764;SDS011;30484;52.382;5.260;2022-12-18T14:38:28;34.22;;;14.98;;
44764;SDS011;30484;52.382;5.260;2022-12-18T14:41:02;31.20;;;15.48;;
44764;SDS011;30484;52.382;5.260;2022-12-18T14:43:35;32.08;;;14.73;;
44764;SDS011;30484;52.382;5.260;2022-12-18T14:46:05;27.98;;;13.70;;
44764;SDS011;30484;52.382;5.260;2022-12-18T14:48:55;32.22;;;16.50;;
44764;SDS011;30484;52.382;5.260;2022-12-18T14:51:27;32.22;;;15.27;;
44764;SDS011;30484;52.382;5.260;2022-12-18T14:54:00;41.08;;;14.40;;
44764;SDS011;30484;52.382;5.260;2022-12-18T14:56:34;26.13;;;12.73;;
44764;SDS011;30484;52.382;5.260;2022-12-18T14:59:14;28.65;;;13.88;;
44764;SDS011;30484;52.382;5.260;2022-12-18T15:01:53;30.08;;;15.65;;
44764;SDS011;30484;52.382;5.260;2022-12-18T15:04:31;29.13;;;14.10;;
44764;SDS011;30484;52.382;5.260;2022-12-18T15:07:12;35.67;;;17.77;;
44764;SDS011;30484;52.382;5.260;2022-12-18T15:10:00;38.97;;;18.88;;